createdAt,value
2019-02-17T00:02:25.599Z,6.10
2019-02-17T00:04:54.000Z,6.10
2019-02-17T00:07:22.446Z,6.00
2019-02-17T00:09:50.852Z,6.00
2019-02-17T00:12:19.253Z,6.00
2019-02-17T00:14:47.676Z,6.00
2019-02-17T00:17:16.062Z,6.00
2019-02-17T00:19:44.457Z,6.00
2019-02-17T00:22:12.889Z,5.90
2019-02-17T00:24:41.281Z,5.80
2019-02-17T00:27:09.676Z,5.80
2019-02-17T00:29:38.097Z,5.70
2019-02-17T00:32:06.501Z,5.70
2019-02-17T00:34:34.909Z,5.70
2019-02-17T00:37:03.328Z,5.70
2019-02-17T00:39:31.724Z,5.60
2019-02-17T00:42:00.144Z,5.60
2019-02-17T00:44:28.566Z,5.60
2019-02-17T00:46:56.957Z,5.50
2019-02-17T00:49:25.834Z,5.50
2019-02-17T00:51:54.260Z,5.50
2019-02-17T00:54:22.663Z,5.40
2019-02-17T00:56:51.062Z,5.30
2019-02-17T00:59:19.513Z,5.30
2019-02-17T01:01:48.292Z,5.30
2019-02-17T01:04:16.698Z,5.20
2019-02-17T01:06:45.121Z,5.20
2019-02-17T01:09:13.587Z,5.20
2019-02-17T01:11:41.996Z,5.20
2019-02-17T01:14:10.477Z,5.20
2019-02-17T01:16:38.877Z,5.20
2019-02-17T01:19:07.307Z,5.20
2019-02-17T01:21:35.703Z,5.20
2019-02-17T01:24:04.102Z,5.20
2019-02-17T01:26:32.669Z,5.20
2019-02-17T01:29:01.065Z,5.20
2019-02-17T01:31:29.463Z,5.20
2019-02-17T01:33:57.882Z,5.10
2019-02-17T01:36:26.282Z,5.10
2019-02-17T01:38:54.677Z,5.00
2019-02-17T01:41:23.101Z,5.00
2019-02-17T01:43:51.502Z,5.10
2019-02-17T01:46:19.905Z,5.10
2019-02-17T01:48:48.346Z,5.10
2019-02-17T01:51:16.746Z,5.00
2019-02-17T01:53:45.145Z,5.00
2019-02-17T01:56:13.560Z,4.90
2019-02-17T01:58:41.953Z,4.90
2019-02-17T02:01:10.424Z,4.90
2019-02-17T02:03:38.846Z,4.90
2019-02-17T02:06:07.249Z,4.90
2019-02-17T02:08:35.641Z,4.90
2019-02-17T02:11:04.077Z,4.90
2019-02-17T02:13:32.472Z,4.90
2019-02-17T02:16:00.861Z,4.90
2019-02-17T02:18:29.292Z,4.90
2019-02-17T02:20:57.692Z,4.80
2019-02-17T02:23:26.093Z,4.80
2019-02-17T02:25:54.508Z,4.80
2019-02-17T02:28:22.910Z,4.80
2019-02-17T02:30:51.309Z,4.80
2019-02-17T02:33:19.740Z,4.80
2019-02-17T02:35:48.142Z,4.80
2019-02-17T02:38:16.547Z,4.80
2019-02-17T02:40:44.965Z,4.80
2019-02-17T02:43:13.391Z,4.80
2019-02-17T02:45:41.879Z,4.70
2019-02-17T02:48:10.274Z,4.70
2019-02-17T02:50:38.701Z,4.70
2019-02-17T02:53:07.098Z,4.60
2019-02-17T02:55:35.509Z,4.60
2019-02-17T02:58:03.948Z,4.60
2019-02-17T03:00:32.351Z,4.60
2019-02-17T03:03:00.754Z,4.50
2019-02-17T03:05:29.189Z,4.50
2019-02-17T03:07:57.595Z,4.50
2019-02-17T03:10:26.300Z,4.40
2019-02-17T03:12:54.693Z,4.50
2019-02-17T03:15:23.095Z,4.50
2019-02-17T03:17:51.526Z,4.40
2019-02-17T03:20:19.944Z,4.40
2019-02-17T03:22:48.335Z,4.40
2019-02-17T03:25:16.768Z,4.40
2019-02-17T03:27:45.170Z,4.40
2019-02-17T03:30:13.596Z,4.40
2019-02-17T03:32:42.018Z,4.40
2019-02-17T03:35:10.424Z,4.40
2019-02-17T03:37:38.818Z,4.30
2019-02-17T03:40:08.998Z,4.30
2019-02-17T03:42:37.408Z,4.20
2019-02-17T03:45:08.848Z,4.20
2019-02-17T03:47:37.282Z,4.10
2019-02-17T03:50:06.831Z,4.10
2019-02-17T03:52:35.257Z,4.20
2019-02-17T03:55:03.654Z,4.10
2019-02-17T03:57:32.049Z,4.10
2019-02-17T04:00:00.492Z,4.10
2019-02-17T04:02:28.931Z,4.10
2019-02-17T04:04:57.322Z,4.10
2019-02-17T04:07:25.721Z,4.10
2019-02-17T04:09:54.558Z,4.10
2019-02-17T04:12:22.960Z,4.10
2019-02-17T04:14:51.436Z,4.10
2019-02-17T04:17:19.878Z,4.10
2019-02-17T04:19:48.327Z,4.10
2019-02-17T04:22:16.750Z,4.10
2019-02-17T04:24:45.204Z,4.10
2019-02-17T04:27:13.653Z,4.10
2019-02-17T04:29:42.056Z,4.20
2019-02-17T04:32:10.453Z,4.20
2019-02-17T04:34:38.892Z,4.20
2019-02-17T04:37:07.301Z,4.20
2019-02-17T04:39:35.703Z,4.20
2019-02-17T04:42:04.150Z,4.10
2019-02-17T04:44:32.548Z,4.10
2019-02-17T04:47:00.961Z,4.10
2019-02-17T04:49:29.401Z,4.10
2019-02-17T04:51:58.094Z,4.00
2019-02-17T04:54:26.494Z,4.00
2019-02-17T04:56:54.908Z,4.00
2019-02-17T04:59:23.355Z,4.00
2019-02-17T05:01:51.757Z,3.90
2019-02-17T05:04:20.150Z,3.90
2019-02-17T05:06:48.593Z,3.90
2019-02-17T05:09:16.994Z,3.80
2019-02-17T05:11:45.393Z,3.80
2019-02-17T05:14:13.861Z,3.80
2019-02-17T05:16:42.270Z,3.80
2019-02-17T05:19:10.670Z,3.70
2019-02-17T05:21:39.116Z,3.80
2019-02-17T05:24:07.514Z,3.70
2019-02-17T05:26:35.913Z,3.70
2019-02-17T05:29:04.354Z,3.70
2019-02-17T05:31:32.758Z,3.70
2019-02-17T05:34:01.173Z,3.70
2019-02-17T05:36:29.790Z,3.70
2019-02-17T05:38:58.181Z,3.70
2019-02-17T05:41:26.594Z,3.60
2019-02-17T05:43:55.213Z,3.60
2019-02-17T05:46:23.614Z,3.60
2019-02-17T05:48:52.009Z,3.60
2019-02-17T05:51:20.444Z,3.50
2019-02-17T05:53:48.841Z,3.50
2019-02-17T05:56:17.297Z,3.50
2019-02-17T05:58:45.692Z,3.50
2019-02-17T06:01:14.092Z,3.50
2019-02-17T06:04:09.434Z,3.40
2019-02-17T06:06:37.838Z,3.40
2019-02-17T06:09:06.244Z,3.30
2019-02-17T06:11:34.691Z,3.30
2019-02-17T06:14:03.089Z,3.30
2019-02-17T06:16:31.544Z,3.30
2019-02-17T06:18:59.934Z,3.30
2019-02-17T06:21:28.333Z,3.30
2019-02-17T06:23:56.782Z,3.30
2019-02-17T06:26:25.181Z,3.20
2019-02-17T06:28:53.583Z,3.20
2019-02-17T06:31:22.036Z,3.20
2019-02-17T06:33:50.434Z,3.30
2019-02-17T06:36:18.843Z,3.30
2019-02-17T06:38:47.288Z,3.30
2019-02-17T06:41:15.693Z,3.30
2019-02-17T06:43:44.089Z,3.20
2019-02-17T06:46:14.153Z,3.20
2019-02-17T06:48:42.558Z,3.20
2019-02-17T06:51:10.963Z,3.30
2019-02-17T06:53:39.672Z,3.30
2019-02-17T06:56:18.678Z,3.40
2019-02-17T06:58:47.425Z,3.40
2019-02-17T07:01:24.368Z,3.40
2019-02-17T07:03:45.953Z,3.40
2019-02-17T07:06:31.150Z,3.40
2019-02-17T07:08:59.757Z,3.40
2019-02-17T07:11:28.166Z,3.50
2019-02-17T07:13:56.571Z,3.50
2019-02-17T07:16:25.021Z,3.50
2019-02-17T07:18:53.431Z,3.60
2019-02-17T07:21:21.861Z,3.60
2019-02-17T07:23:50.391Z,3.70
2019-02-17T07:26:18.789Z,3.80
2019-02-17T07:28:47.189Z,3.80
2019-02-17T07:31:15.585Z,3.90
2019-02-17T07:33:44.082Z,4.00
2019-02-17T07:36:12.469Z,4.10
2019-02-17T07:38:40.881Z,4.20
2019-02-17T07:41:09.449Z,4.20
2019-02-17T07:43:37.867Z,4.30
2019-02-17T07:46:06.262Z,4.40
2019-02-17T07:48:34.709Z,4.50
2019-02-17T07:51:03.102Z,4.60
2019-02-17T07:53:31.696Z,4.60
2019-02-17T07:56:00.099Z,4.70
2019-02-17T07:58:28.502Z,4.80
2019-02-17T08:00:56.934Z,4.80
2019-02-17T08:03:25.357Z,4.90
2019-02-17T08:05:53.730Z,4.90
2019-02-17T08:08:22.577Z,4.90
2019-02-17T08:10:50.983Z,5.00
2019-02-17T08:13:19.385Z,5.10
2019-02-17T08:15:47.855Z,5.20
2019-02-17T08:18:16.256Z,5.30
2019-02-17T08:20:45.139Z,5.40
2019-02-17T08:23:13.588Z,5.60
2019-02-17T08:25:42.121Z,5.70
2019-02-17T08:28:10.517Z,5.80
2019-02-17T08:30:38.926Z,6.00
2019-02-17T08:33:07.367Z,6.10
2019-02-17T08:35:35.837Z,6.10
2019-02-17T08:38:04.230Z,6.20
2019-02-17T08:40:32.637Z,6.30
2019-02-17T08:43:01.092Z,6.30
2019-02-17T08:45:29.490Z,6.50
2019-02-17T08:47:57.896Z,6.60
2019-02-17T08:50:26.335Z,6.70
2019-02-17T08:52:54.741Z,6.80
2019-02-17T08:55:23.146Z,6.90
2019-02-17T08:57:51.599Z,7.00
2019-02-17T09:00:20.012Z,7.10
2019-02-17T09:02:48.417Z,7.10
2019-02-17T09:05:16.867Z,7.30
2019-02-17T09:07:45.263Z,7.40
2019-02-17T09:10:13.748Z,7.50
2019-02-17T09:12:42.187Z,7.70
2019-02-17T09:15:11.859Z,7.80
2019-02-17T09:17:40.246Z,8.00
2019-02-17T09:20:10.743Z,8.20
2019-02-17T09:22:39.142Z,8.40
2019-02-17T09:25:09.929Z,8.60
2019-02-17T09:27:38.335Z,8.80
2019-02-17T09:30:10.528Z,8.90
2019-02-17T09:32:38.970Z,9.10
2019-02-17T09:35:07.398Z,9.30
2019-02-17T09:37:35.861Z,9.40
2019-02-17T09:40:06.253Z,9.50
2019-02-17T09:42:34.655Z,9.60
2019-02-17T09:45:04.556Z,9.70
2019-02-17T09:47:32.992Z,9.90
2019-02-17T09:50:01.398Z,10.00
2019-02-17T09:52:29.812Z,10.20
2019-02-17T09:54:58.250Z,10.40
2019-02-17T09:57:27.550Z,10.60
2019-02-17T09:59:55.999Z,10.70
2019-02-17T10:02:26.860Z,10.70
2019-02-17T10:04:54.589Z,10.80
2019-02-17T10:07:23.048Z,11.00
2019-02-17T10:09:51.451Z,11.10
2019-02-17T10:12:19.901Z,11.10
2019-02-17T10:14:48.310Z,11.30
2019-02-17T10:17:16.718Z,11.40
2019-02-17T10:19:45.170Z,11.50
2019-02-17T10:22:13.577Z,11.60
2019-02-17T10:24:41.986Z,11.80
2019-02-17T10:27:10.436Z,11.90
2019-02-17T10:29:38.918Z,12.10
2019-02-17T10:32:07.369Z,12.20
2019-02-17T10:34:36.074Z,12.30
2019-02-17T10:37:04.477Z,12.30
2019-02-17T10:39:32.877Z,12.40
2019-02-17T10:42:01.331Z,12.50
2019-02-17T10:44:29.967Z,12.60
2019-02-17T10:46:58.377Z,12.80
2019-02-17T10:49:26.830Z,12.90
2019-02-17T10:51:55.230Z,13.00
2019-02-17T10:54:23.653Z,13.10
2019-02-17T10:56:52.113Z,13.20
2019-02-17T10:59:20.517Z,13.30
2019-02-17T11:01:49.100Z,13.40
2019-02-17T11:04:17.508Z,13.50
2019-02-17T11:06:45.921Z,13.70
2019-02-17T11:09:16.133Z,13.80
2019-02-17T11:11:44.605Z,13.80
2019-02-17T11:14:13.036Z,14.00
2019-02-17T11:16:41.475Z,14.10
2019-02-17T11:19:10.063Z,14.30
2019-02-17T11:21:38.465Z,14.60
2019-02-17T11:24:06.870Z,14.80
2019-02-17T11:26:35.384Z,14.90
2019-02-17T11:29:03.858Z,15.00
2019-02-17T11:31:32.265Z,15.10
2019-02-17T11:34:00.830Z,15.20
2019-02-17T11:36:29.259Z,15.30
2019-02-17T11:38:57.707Z,15.40
2019-02-17T11:41:27.057Z,15.50
2019-02-17T11:43:55.493Z,15.50
2019-02-17T11:46:23.898Z,15.60
2019-02-17T11:48:52.297Z,15.60
2019-02-17T11:51:20.766Z,15.60
2019-02-17T11:53:49.175Z,15.60
2019-02-17T11:56:17.587Z,15.80
2019-02-17T11:58:46.046Z,15.80
2019-02-17T12:01:14.454Z,15.80
2019-02-17T12:03:42.858Z,15.70
2019-02-17T12:06:11.301Z,15.70
2019-02-17T12:08:42.788Z,15.90
2019-02-17T12:11:11.202Z,15.90
2019-02-17T12:13:39.653Z,16.00
2019-02-17T12:16:08.128Z,16.10
2019-02-17T12:18:36.529Z,16.30
2019-02-17T12:21:06.623Z,16.60
2019-02-17T12:23:42.721Z,16.70
2019-02-17T12:26:13.058Z,16.90
2019-02-17T12:28:43.102Z,17.10
2019-02-17T12:31:13.414Z,17.10
2019-02-17T12:33:41.861Z,17.00
2019-02-17T12:36:10.269Z,17.00
2019-02-17T12:38:38.674Z,17.00
2019-02-17T12:41:07.397Z,17.00
2019-02-17T12:43:35.796Z,17.10
2019-02-17T12:46:04.200Z,17.30
2019-02-17T12:48:32.670Z,17.40
2019-02-17T12:51:01.078Z,17.60
2019-02-17T12:53:29.530Z,17.80
2019-02-17T12:55:57.933Z,18.10
2019-02-17T12:58:29.962Z,18.20
2019-02-17T13:00:56.665Z,18.40
2019-02-17T13:03:28.555Z,18.70
2019-02-17T13:05:55.253Z,18.90
2019-02-17T13:08:23.659Z,19.10
2019-02-17T13:10:52.142Z,19.20
2019-02-17T13:13:20.565Z,19.30
2019-02-17T13:15:48.968Z,19.50
2019-02-17T13:18:17.361Z,19.70
2019-02-17T13:20:46.035Z,19.80
2019-02-17T13:23:14.397Z,19.80
2019-02-17T13:25:42.797Z,20.00
2019-02-17T13:28:11.233Z,20.10
2019-02-17T13:30:39.652Z,20.20
2019-02-17T13:33:08.081Z,20.40
2019-02-17T13:35:36.505Z,20.50
2019-02-17T13:38:04.909Z,20.80
2019-02-17T13:40:33.648Z,20.80
2019-02-17T13:43:02.048Z,20.70
2019-02-17T13:45:30.455Z,20.60
2019-02-17T13:47:58.907Z,20.40
2019-02-17T13:50:27.315Z,20.30
2019-02-17T13:52:55.750Z,20.40
2019-02-17T13:55:24.164Z,20.30
2019-02-17T13:57:52.617Z,20.20
2019-02-17T14:00:21.142Z,20.30
2019-02-17T14:02:49.542Z,20.40
2019-02-17T14:05:17.946Z,20.50
2019-02-17T14:07:46.386Z,20.80
2019-02-17T14:10:15.021Z,21.20
2019-02-17T14:12:43.429Z,21.10
2019-02-17T14:15:19.769Z,20.90
2019-02-17T14:17:48.191Z,20.60
2019-02-17T14:20:16.585Z,20.60
2019-02-17T14:22:45.027Z,20.40
2019-02-17T14:25:13.426Z,20.10
2019-02-17T14:27:41.872Z,19.90
2019-02-17T14:30:14.484Z,20.10
2019-02-17T14:32:42.917Z,21.10
2019-02-17T14:35:11.494Z,22.00
2019-02-17T14:37:40.012Z,22.20
2019-02-17T14:40:10.621Z,22.90
2019-02-17T14:42:39.103Z,22.90
2019-02-17T14:45:10.759Z,23.10
2019-02-17T14:47:39.148Z,22.80
2019-02-17T14:50:08.631Z,22.30
2019-02-17T14:52:37.067Z,21.60
2019-02-17T14:55:07.606Z,21.50
2019-02-17T14:57:36.045Z,21.50
2019-02-17T15:00:12.760Z,21.20
2019-02-17T15:02:41.516Z,21.10
2019-02-17T15:05:10.563Z,21.60
2019-02-17T15:07:38.966Z,21.80
2019-02-17T15:10:11.437Z,21.80
2019-02-17T15:12:39.845Z,21.40
2019-02-17T15:15:17.328Z,20.90
2019-02-17T15:17:45.736Z,20.50
2019-02-17T15:20:22.147Z,20.00
2019-02-17T15:22:50.553Z,19.90
2019-02-17T15:25:19.021Z,20.00
2019-02-17T15:27:47.459Z,19.90
2019-02-17T15:30:17.963Z,19.70
2019-02-17T15:32:46.571Z,19.30
2019-02-17T15:35:15.071Z,18.90
2019-02-17T15:37:43.517Z,19.00
2019-02-17T15:40:15.189Z,19.50
2019-02-17T15:42:43.664Z,20.10
2019-02-17T15:45:13.329Z,20.50
2019-02-17T15:47:41.798Z,20.40
2019-02-17T15:50:14.155Z,20.20
2019-02-17T15:52:42.594Z,20.10
2019-02-17T15:55:12.438Z,20.10
2019-02-17T15:57:40.859Z,20.20
2019-02-17T16:00:12.211Z,20.20
2019-02-17T16:02:40.630Z,20.40
2019-02-17T16:05:09.747Z,20.70
2019-02-17T16:07:38.245Z,20.50
2019-02-17T16:10:12.097Z,20.00
2019-02-17T16:12:40.505Z,19.30
2019-02-17T16:15:20.612Z,18.80
2019-02-17T16:17:49.013Z,18.30
2019-02-17T16:20:17.449Z,18.00
2019-02-17T16:22:45.840Z,17.70
2019-02-17T16:25:14.238Z,17.60
2019-02-17T16:27:42.679Z,17.60
2019-02-17T16:30:17.070Z,17.70
2019-02-17T16:32:45.470Z,17.60
2019-02-17T16:35:13.922Z,17.40
2019-02-17T16:37:42.326Z,17.00
2019-02-17T16:40:17.340Z,16.70
2019-02-17T16:42:45.788Z,16.40
2019-02-17T16:45:14.792Z,16.10
2019-02-17T16:47:43.842Z,15.90
2019-02-17T16:50:23.061Z,15.70
2019-02-17T16:52:51.477Z,15.50
2019-02-17T16:55:19.867Z,15.20
2019-02-17T16:57:48.297Z,15.10
2019-02-17T17:00:23.027Z,14.90
2019-02-17T17:02:53.262Z,14.80
2019-02-17T17:05:22.593Z,14.60
2019-02-17T17:07:50.992Z,14.50
2019-02-17T17:10:19.573Z,14.40
2019-02-17T17:12:48.066Z,14.30
2019-02-17T17:15:16.901Z,14.20
2019-02-17T17:17:45.511Z,14.10
2019-02-17T17:20:20.815Z,13.90
2019-02-17T17:22:49.209Z,13.80
2019-02-17T17:25:17.805Z,13.70
2019-02-17T17:27:46.190Z,13.60
2019-02-17T17:30:16.715Z,13.60
2019-02-17T17:32:45.214Z,13.40
2019-02-17T17:35:13.756Z,13.30
2019-02-17T17:37:42.586Z,13.10
2019-02-17T17:40:13.093Z,12.90
2019-02-17T17:42:41.485Z,12.80
2019-02-17T17:45:17.425Z,12.70
2019-02-17T17:47:45.820Z,12.60
2019-02-17T17:50:15.359Z,12.60
2019-02-17T17:52:43.940Z,12.50
2019-02-17T17:55:13.477Z,12.50
2019-02-17T17:57:41.880Z,12.40
2019-02-17T18:00:16.860Z,12.40
2019-02-17T18:02:45.332Z,12.30
2019-02-17T18:05:14.061Z,12.40
2019-02-17T18:07:42.656Z,12.20
2019-02-17T18:10:13.106Z,12.10
2019-02-17T18:12:41.515Z,11.90
2019-02-17T18:15:14.888Z,11.80
2019-02-17T18:17:53.429Z,11.70
2019-02-17T18:20:13.884Z,11.60
2019-02-17T18:22:42.360Z,11.50
2019-02-17T18:25:15.191Z,11.40
2019-02-17T18:27:43.587Z,11.40
2019-02-17T18:30:18.046Z,11.40
2019-02-17T18:32:46.542Z,11.30
2019-02-17T18:35:19.970Z,11.20
2019-02-17T18:37:45.176Z,11.00
2019-02-17T18:40:17.657Z,10.90
2019-02-17T18:42:46.132Z,10.80
2019-02-17T18:45:15.484Z,10.70
2019-02-17T18:47:43.914Z,10.60
2019-02-17T18:50:14.675Z,10.50
2019-02-17T18:52:43.079Z,10.30
2019-02-17T18:55:12.779Z,10.30
2019-02-17T18:57:49.491Z,10.20
2019-02-17T19:00:17.150Z,10.10
2019-02-17T19:02:45.547Z,10.00
2019-02-17T19:05:14.083Z,9.80
2019-02-17T19:07:42.501Z,9.80
2019-02-17T19:10:12.617Z,9.80
2019-02-17T19:12:41.159Z,9.70
2019-02-17T19:15:14.638Z,9.70
2019-02-17T19:17:43.206Z,9.70
2019-02-17T19:20:14.670Z,9.60
2019-02-17T19:22:43.081Z,9.60
2019-02-17T19:25:11.527Z,9.50
2019-02-17T19:27:40.098Z,9.50
2019-02-17T19:30:11.568Z,9.40
2019-02-17T19:32:39.965Z,9.30
2019-02-17T19:35:10.722Z,9.30
2019-02-17T19:37:39.169Z,9.20
2019-02-17T19:40:10.181Z,9.10
2019-02-17T19:42:38.599Z,9.00
2019-02-17T19:45:15.610Z,9.00
2019-02-17T19:47:43.988Z,8.90
2019-02-17T19:50:14.805Z,8.80
2019-02-17T19:52:43.314Z,8.70
2019-02-17T19:55:12.636Z,8.60
2019-02-17T19:57:41.108Z,8.50
2019-02-17T20:00:14.625Z,8.50
2019-02-17T20:03:02.562Z,8.40
2019-02-17T20:05:35.173Z,8.30
2019-02-17T20:08:03.009Z,8.30
2019-02-17T20:10:31.447Z,8.20
2019-02-17T20:12:59.878Z,8.20
2019-02-17T20:15:29.937Z,8.10
2019-02-17T20:17:58.320Z,8.10
2019-02-17T20:20:26.772Z,8.00
2019-02-17T20:22:55.223Z,8.00
2019-02-17T20:25:23.643Z,7.90
2019-02-17T20:27:52.055Z,7.90
2019-02-17T20:30:20.490Z,7.80
2019-02-17T20:32:48.930Z,7.80
2019-02-17T20:35:17.366Z,7.80
2019-02-17T20:37:45.795Z,7.80
2019-02-17T20:40:16.074Z,7.70
2019-02-17T20:42:44.478Z,7.70
2019-02-17T20:45:13.196Z,7.70
2019-02-17T20:47:41.623Z,7.60
2019-02-17T20:50:17.020Z,7.50
2019-02-17T20:52:45.437Z,7.50
2019-02-17T20:55:14.315Z,7.50
2019-02-17T20:57:42.708Z,7.40
2019-02-17T21:00:19.526Z,7.50
2019-02-17T21:02:47.957Z,7.50
2019-02-17T21:05:16.427Z,7.40
2019-02-17T21:07:44.825Z,7.40
2019-02-17T21:10:14.570Z,7.30
2019-02-17T21:12:43.005Z,7.20
2019-02-17T21:15:13.900Z,7.10
2019-02-17T21:17:42.291Z,7.10
2019-02-17T21:20:11.637Z,7.10
2019-02-17T21:22:40.070Z,7.10
2019-02-17T21:25:13.030Z,7.10
2019-02-17T21:27:41.471Z,7.10
2019-02-17T21:30:17.241Z,7.10
2019-02-17T21:32:45.922Z,7.00
2019-02-17T21:35:15.595Z,7.00
2019-02-17T21:37:44.034Z,6.90
2019-02-17T21:40:13.105Z,6.80
2019-02-17T21:42:41.558Z,6.70
2019-02-17T21:45:11.958Z,6.70
2019-02-17T21:47:40.559Z,6.60
2019-02-17T21:50:11.676Z,6.60
2019-02-17T21:52:41.891Z,6.60
2019-02-17T21:55:11.814Z,6.60
2019-02-17T21:57:40.236Z,6.50
2019-02-17T22:00:20.522Z,6.50
2019-02-17T22:02:49.003Z,6.50
2019-02-17T22:05:17.530Z,6.40
2019-02-17T22:07:45.990Z,6.30
2019-02-17T22:10:16.426Z,6.20
2019-02-17T22:12:44.890Z,6.20
2019-02-17T22:15:18.124Z,6.10
2019-02-17T22:17:46.552Z,6.10
2019-02-17T22:20:14.960Z,6.10
2019-02-17T22:22:43.374Z,6.10
2019-02-17T22:25:13.383Z,6.00
2019-02-17T22:27:41.817Z,6.00
2019-02-17T22:30:11.928Z,6.00
2019-02-17T22:32:40.393Z,5.90
2019-02-17T22:35:09.019Z,5.90
2019-02-17T22:37:37.412Z,5.90
2019-02-17T22:40:08.959Z,5.90
2019-02-17T22:42:37.375Z,5.90
2019-02-17T22:45:08.450Z,5.80
2019-02-17T22:47:36.924Z,5.80
2019-02-17T22:50:08.394Z,5.80
2019-02-17T22:52:36.814Z,5.80
2019-02-17T22:55:08.105Z,5.80
2019-02-17T22:57:36.508Z,5.90
2019-02-17T23:00:19.722Z,5.90
2019-02-17T23:02:48.128Z,5.80
2019-02-17T23:05:16.523Z,5.70
2019-02-17T23:07:45.047Z,5.60
2019-02-17T23:10:13.678Z,5.60
2019-02-17T23:12:42.074Z,5.60
2019-02-17T23:15:10.501Z,5.50
2019-02-17T23:17:38.949Z,5.50
2019-02-17T23:20:08.059Z,5.50
2019-02-17T23:22:36.729Z,5.50
2019-02-17T23:25:08.108Z,5.50
2019-02-17T23:27:36.513Z,5.50
2019-02-17T23:30:06.770Z,5.50
2019-02-17T23:32:35.204Z,5.50
2019-02-17T23:35:03.828Z,5.50
2019-02-17T23:37:32.235Z,5.40
2019-02-17T23:40:00.622Z,5.40
2019-02-17T23:42:29.219Z,5.40
2019-02-17T23:44:57.615Z,5.40
2019-02-17T23:47:26.022Z,5.40
2019-02-17T23:49:54.472Z,5.40
2019-02-17T23:52:22.865Z,5.40
2019-02-17T23:54:51.257Z,5.40
2019-02-17T23:57:19.704Z,5.30
2019-02-17T23:59:48.101Z,5.30
